Adrian, Missouri
Current Conditions -  °F | °C
As of 8:55 AM on Thursday 23 Oct 2014 (Local Time) from KGLY Reporting Station
Drizzle Drizzle  
Wind Chill: 13°   Ceiling: 2800
Heat Index: 13°   Visibility: 4mi
Dew Point: 10°   Wind: 6mph
Humidity: 82%   Direction: 180°S
Pressure: 30.15"   Gusts: NA
Location:  38.4°N, 94.35°W
Report Text: KGLY 231355Z AUTO 18005KT 4SM -DZ BKN028 13/10 A3015 RMK AO2
Loading
Personal Weather Stations






























Interactive Weather Map
Tropical Storm Tracking
New forecast layout! Learn more

10-Day Weather Forecast

Advertisements
Track Severe Weather on mobile